sensor_id;sensor_type;location;lat;lon;timestamp;P1;durP1;ratioP1;P2;durP2;ratioP2
1533;SDS011;760;48.822;9.304;2022-11-15T05:04:39;3.30;;;2.25;;
1533;SDS011;760;48.822;9.304;2022-11-15T05:07:05;3.37;;;2.93;;
1533;SDS011;760;48.822;9.304;2022-11-15T05:09:31;8.20;;;3.70;;
1533;SDS011;760;48.822;9.304;2022-11-15T05:11:56;2.93;;;2.20;;
1533;SDS011;760;48.822;9.304;2022-11-15T05:14:22;7.03;;;3.53;;
1533;SDS011;760;48.822;9.304;2022-11-15T05:16:47;3.53;;;2.60;;
1533;SDS011;760;48.822;9.304;2022-11-15T05:19:13;2.30;;;2.10;;
1533;SDS011;760;48.822;9.304;2022-11-15T05:21:39;2.57;;;1.90;;
1533;SDS011;760;48.822;9.304;2022-11-15T05:24:04;3.33;;;3.03;;
1533;SDS011;760;48.822;9.304;2022-11-15T05:26:30;2.45;;;2.25;;
1533;SDS011;760;48.822;9.304;2022-11-15T05:28:57;2.45;;;2.30;;
1533;SDS011;760;48.822;9.304;2022-11-15T05:31:24;2.17;;;2.00;;
1533;SDS011;760;48.822;9.304;2022-11-15T05:33:51;3.28;;;2.97;;
1533;SDS011;760;48.822;9.304;2022-11-15T05:38:45;2.83;;;2.55;;
1533;SDS011;760;48.822;9.304;2022-11-15T05:41:13;3.08;;;2.30;;
1533;SDS011;760;48.822;9.304;2022-11-15T05:43:40;2.30;;;2.10;;
1533;SDS011;760;48.822;9.304;2022-11-15T05:46:07;2.78;;;1.95;;
1533;SDS011;760;48.822;9.304;2022-11-15T05:48:34;2.70;;;2.50;;
1533;SDS011;760;48.822;9.304;2022-11-15T05:51:01;2.70;;;2.17;;
1533;SDS011;760;48.822;9.304;2022-11-15T05:53:29;1.90;;;1.80;;
1533;SDS011;760;48.822;9.304;2022-11-15T05:55:55;3.17;;;2.58;;
1533;SDS011;760;48.822;9.304;2022-11-15T05:58:21;2.30;;;2.20;;
1533;SDS011;760;48.822;9.304;2022-11-15T06:00:47;3.10;;;2.73;;
1533;SDS011;760;48.822;9.304;2022-11-15T06:03:13;3.78;;;3.17;;
1533;SDS011;760;48.822;9.304;2022-11-15T06:05:39;3.63;;;3.33;;
1533;SDS011;760;48.822;9.304;2022-11-15T06:08:05;2.60;;;2.40;;
1533;SDS011;760;48.822;9.304;2022-11-15T06:10:30;3.10;;;2.80;;
1533;SDS011;760;48.822;9.304;2022-11-15T06:13:00;3.53;;;3.22;;
1533;SDS011;760;48.822;9.304;2022-11-15T06:15:27;2.90;;;2.60;;
1533;SDS011;760;48.822;9.304;2022-11-15T06:17:55;3.93;;;2.60;;
1533;SDS011;760;48.822;9.304;2022-11-15T06:20:22;3.17;;;2.97;;
1533;SDS011;760;48.822;9.304;2022-11-15T06:22:49;2.90;;;2.70;;
1533;SDS011;760;48.822;9.304;2022-11-15T06:25:14;3.07;;;2.73;;
1533;SDS011;760;48.822;9.304;2022-11-15T06:27:41;4.55;;;3.15;;
1533;SDS011;760;48.822;9.304;2022-11-15T06:30:07;2.57;;;2.37;;
1533;SDS011;760;48.822;9.304;2022-11-15T06:32:33;3.45;;;2.78;;
1533;SDS011;760;48.822;9.304;2022-11-15T06:34:58;6.00;;;2.70;;
1533;SDS011;760;48.822;9.304;2022-11-15T06:37:24;4.43;;;3.30;;
1533;SDS011;760;48.822;9.304;2022-11-15T06:39:50;5.17;;;4.67;;
1533;SDS011;760;48.822;9.304;2022-11-15T06:42:15;3.80;;;3.50;;
1533;SDS011;760;48.822;9.304;2022-11-15T06:44:41;3.30;;;3.00;;
1533;SDS011;760;48.822;9.304;2022-11-15T06:47:06;3.10;;;2.77;;
1533;SDS011;760;48.822;9.304;2022-11-15T06:49:32;4.00;;;2.30;;
1533;SDS011;760;48.822;9.304;2022-11-15T06:51:57;2.90;;;2.70;;
1533;SDS011;760;48.822;9.304;2022-11-15T06:54:23;6.20;;;2.60;;
1533;SDS011;760;48.822;9.304;2022-11-15T06:56:48;5.67;;;3.47;;
1533;SDS011;760;48.822;9.304;2022-11-15T06:59:14;5.37;;;3.30;;
1533;SDS011;760;48.822;9.304;2022-11-15T07:01:39;5.27;;;3.40;;
1533;SDS011;760;48.822;9.304;2022-11-15T07:04:05;4.00;;;3.30;;
1533;SDS011;760;48.822;9.304;2022-11-15T07:06:31;3.60;;;3.40;;
1533;SDS011;760;48.822;9.304;2022-11-15T07:08:56;3.83;;;3.50;;
1533;SDS011;760;48.822;9.304;2022-11-15T07:11:22;5.00;;;3.23;;
1533;SDS011;760;48.822;9.304;2022-11-15T07:13:47;5.10;;;3.27;;
1533;SDS011;760;48.822;9.304;2022-11-15T07:16:13;3.93;;;3.60;;
1533;SDS011;760;48.822;9.304;2022-11-15T07:18:39;3.97;;;3.67;;
1533;SDS011;760;48.822;9.304;2022-11-15T07:21:06;8.60;;;4.03;;
1533;SDS011;760;48.822;9.304;2022-11-15T07:23:36;3.28;;;2.97;;
1533;SDS011;760;48.822;9.304;2022-11-15T07:26:06;2.90;;;2.70;;
1533;SDS011;760;48.822;9.304;2022-11-15T07:28:32;9.35;;;4.25;;
1533;SDS011;760;48.822;9.304;2022-11-15T07:31:01;3.50;;;3.20;;
1533;SDS011;760;48.822;9.304;2022-11-15T07:33:28;2.72;;;2.22;;
1533;SDS011;760;48.822;9.304;2022-11-15T07:35:53;3.33;;;3.00;;
1533;SDS011;760;48.822;9.304;2022-11-15T07:38:19;4.90;;;3.20;;
1533;SDS011;760;48.822;9.304;2022-11-15T07:40:44;4.20;;;2.80;;
1533;SDS011;760;48.822;9.304;2022-11-15T07:43:10;8.93;;;3.60;;
1533;SDS011;760;48.822;9.304;2022-11-15T07:45:40;4.80;;;3.10;;
1533;SDS011;760;48.822;9.304;2022-11-15T07:48:09;3.30;;;3.00;;
1533;SDS011;760;48.822;9.304;2022-11-15T07:50:35;3.57;;;2.80;;
1533;SDS011;760;48.822;9.304;2022-11-15T07:53:01;3.30;;;3.00;;
1533;SDS011;760;48.822;9.304;2022-11-15T07:55:27;2.87;;;2.63;;
1533;SDS011;760;48.822;9.304;2022-11-15T07:58:05;3.80;;;3.40;;
1533;SDS011;760;48.822;9.304;2022-11-15T08:00:33;4.03;;;2.90;;
1533;SDS011;760;48.822;9.304;2022-11-15T08:05:32;3.43;;;3.13;;
1533;SDS011;760;48.822;9.304;2022-11-15T08:07:59;4.30;;;2.57;;
1533;SDS011;760;48.822;9.304;2022-11-15T08:10:25;4.00;;;2.83;;
1533;SDS011;760;48.822;9.304;2022-11-15T08:12:58;4.00;;;3.17;;
1533;SDS011;760;48.822;9.304;2022-11-15T08:15:29;3.10;;;2.70;;
1533;SDS011;760;48.822;9.304;2022-11-15T08:17:56;3.03;;;2.57;;
1533;SDS011;760;48.822;9.304;2022-11-15T08:20:23;2.30;;;2.10;;
1533;SDS011;760;48.822;9.304;2022-11-15T08:22:49;2.83;;;2.00;;
1533;SDS011;760;48.822;9.304;2022-11-15T08:25:14;6.30;;;2.43;;
1533;SDS011;760;48.822;9.304;2022-11-15T08:27:40;4.40;;;2.50;;
1533;SDS011;760;48.822;9.304;2022-11-15T08:30:06;3.47;;;3.17;;
1533;SDS011;760;48.822;9.304;2022-11-15T08:32:32;5.27;;;2.40;;
1533;SDS011;760;48.822;9.304;2022-11-15T08:34:57;2.37;;;2.17;;
1533;SDS011;760;48.822;9.304;2022-11-15T08:37:23;2.93;;;2.63;;
1533;SDS011;760;48.822;9.304;2022-11-15T08:39:49;3.00;;;2.73;;
1533;SDS011;760;48.822;9.304;2022-11-15T08:42:14;3.30;;;2.03;;
1533;SDS011;760;48.822;9.304;2022-11-15T08:44:41;3.40;;;2.17;;
1533;SDS011;760;48.822;9.304;2022-11-15T08:47:07;2.83;;;2.43;;
1533;SDS011;760;48.822;9.304;2022-11-15T08:49:35;3.37;;;2.67;;
1533;SDS011;760;48.822;9.304;2022-11-15T08:52:01;2.77;;;2.53;;
1533;SDS011;760;48.822;9.304;2022-11-15T08:54:26;4.30;;;2.80;;
1533;SDS011;760;48.822;9.304;2022-11-15T08:56:52;3.33;;;3.03;;
1533;SDS011;760;48.822;9.304;2022-11-15T08:59:17;3.63;;;2.70;;
1533;SDS011;760;48.822;9.304;2022-11-15T09:01:43;2.93;;;2.63;;
1533;SDS011;760;48.822;9.304;2022-11-15T09:04:08;3.63;;;3.33;;
1533;SDS011;760;48.822;9.304;2022-11-15T09:06:34;4.07;;;3.07;;
1533;SDS011;760;48.822;9.304;2022-11-15T09:09:00;8.00;;;3.50;;
1533;SDS011;760;48.822;9.304;2022-11-15T09:11:26;3.40;;;3.10;;
1533;SDS011;760;48.822;9.304;2022-11-15T09:13:52;3.20;;;2.90;;
1533;SDS011;760;48.822;9.304;2022-11-15T09:16:17;3.60;;;3.40;;
1533;SDS011;760;48.822;9.304;2022-11-15T09:18:43;3.17;;;2.93;;
1533;SDS011;760;48.822;9.304;2022-11-15T09:21:09;3.60;;;3.30;;
1533;SDS011;760;48.822;9.304;2022-11-15T09:23:35;4.07;;;2.80;;
1533;SDS011;760;48.822;9.304;2022-11-15T09:26:01;2.90;;;2.60;;
1533;SDS011;760;48.822;9.304;2022-11-15T09:28:27;2.27;;;2.10;;
1533;SDS011;760;48.822;9.304;2022-11-15T09:30:57;3.07;;;2.87;;
1533;SDS011;760;48.822;9.304;2022-11-15T09:33:24;3.13;;;2.80;;
1533;SDS011;760;48.822;9.304;2022-11-15T09:35:50;5.30;;;2.47;;
1533;SDS011;760;48.822;9.304;2022-11-15T09:38:16;3.27;;;2.50;;
1533;SDS011;760;48.822;9.304;2022-11-15T09:40:42;2.93;;;2.30;;
1533;SDS011;760;48.822;9.304;2022-11-15T09:43:24;2.30;;;2.10;;
1533;SDS011;760;48.822;9.304;2022-11-15T09:49:01;2.43;;;2.23;;
1533;SDS011;760;48.822;9.304;2022-11-15T09:51:29;2.27;;;2.07;;
1533;SDS011;760;48.822;9.304;2022-11-15T09:56:35;2.87;;;2.40;;
1533;SDS011;760;48.822;9.304;2022-11-15T10:04:37;3.53;;;2.67;;
1533;SDS011;760;48.822;9.304;2022-11-15T10:07:25;2.50;;;2.40;;
1533;SDS011;760;48.822;9.304;2022-11-15T10:12:50;2.40;;;2.20;;
1533;SDS011;760;48.822;9.304;2022-11-15T10:15:17;3.43;;;2.40;;
1533;SDS011;760;48.822;9.304;2022-11-15T10:20:23;3.70;;;2.70;;
1533;SDS011;760;48.822;9.304;2022-11-15T10:22:52;3.43;;;2.20;;
1533;SDS011;760;48.822;9.304;2022-11-15T10:25:31;3.07;;;2.20;;
1533;SDS011;760;48.822;9.304;2022-11-15T10:30:53;2.23;;;2.03;;
1533;SDS011;760;48.822;9.304;2022-11-15T10:33:34;2.50;;;2.30;;
1533;SDS011;760;48.822;9.304;2022-11-15T10:36:22;1.87;;;1.77;;
1533;SDS011;760;48.822;9.304;2022-11-15T10:43:44;2.70;;;2.50;;
1533;SDS011;760;48.822;9.304;2022-11-15T10:46:26;2.90;;;2.70;;
1533;SDS011;760;48.822;9.304;2022-11-15T10:48:51;2.63;;;2.43;;
1533;SDS011;760;48.822;9.304;2022-11-15T10:51:27;3.07;;;1.80;;
1533;SDS011;760;48.822;9.304;2022-11-15T10:53:56;2.63;;;2.43;;
1533;SDS011;760;48.822;9.304;2022-11-15T10:56:24;2.07;;;1.93;;
1533;SDS011;760;48.822;9.304;2022-11-15T10:58:55;2.50;;;2.17;;
1533;SDS011;760;48.822;9.304;2022-11-15T11:01:23;2.27;;;2.10;;
1533;SDS011;760;48.822;9.304;2022-11-15T11:03:58;1.97;;;1.67;;
1533;SDS011;760;48.822;9.304;2022-11-15T11:06:50;2.97;;;2.27;;
1533;SDS011;760;48.822;9.304;2022-11-15T11:11:56;3.70;;;2.40;;
1533;SDS011;760;48.822;9.304;2022-11-15T11:14:26;2.13;;;1.60;;
1533;SDS011;760;48.822;9.304;2022-11-15T11:29:37;2.60;;;2.40;;
1533;SDS011;760;48.822;9.304;2022-11-15T11:32:23;2.03;;;1.80;;
1533;SDS011;760;48.822;9.304;2022-11-15T11:35:13;2.47;;;2.27;;
1533;SDS011;760;48.822;9.304;2022-11-15T11:37:58;2.30;;;2.00;;
1533;SDS011;760;48.822;9.304;2022-11-15T11:40:36;2.47;;;2.27;;
1533;SDS011;760;48.822;9.304;2022-11-15T11:43:23;2.60;;;2.40;;
1533;SDS011;760;48.822;9.304;2022-11-15T11:46:08;2.60;;;1.80;;
1533;SDS011;760;48.822;9.304;2022-11-15T11:49:08;19.13;;;11.60;;
1533;SDS011;760;48.822;9.304;2022-11-15T11:51:39;2.43;;;2.23;;
1533;SDS011;760;48.822;9.304;2022-11-15T11:56:44;2.03;;;1.50;;
1533;SDS011;760;48.822;9.304;2022-11-15T11:59:19;1.83;;;1.73;;
1533;SDS011;760;48.822;9.304;2022-11-15T12:01:50;6.60;;;1.60;;
1533;SDS011;760;48.822;9.304;2022-11-15T12:04:21;2.20;;;1.60;;
1533;SDS011;760;48.822;9.304;2022-11-15T12:12:48;2.97;;;2.00;;
1533;SDS011;760;48.822;9.304;2022-11-15T12:15:26;2.13;;;1.93;;
1533;SDS011;760;48.822;9.304;2022-11-15T12:17:56;2.97;;;1.70;;
1533;SDS011;760;48.822;9.304;2022-11-15T12:20:26;2.40;;;2.03;;
1533;SDS011;760;48.822;9.304;2022-11-15T12:22:57;1.80;;;1.70;;
1533;SDS011;760;48.822;9.304;2022-11-15T12:25:31;3.40;;;2.33;;
1533;SDS011;760;48.822;9.304;2022-11-15T12:31:18;1.70;;;1.60;;
1533;SDS011;760;48.822;9.304;2022-11-15T12:33:56;1.93;;;1.40;;
1533;SDS011;760;48.822;9.304;2022-11-15T12:38:56;1.63;;;1.53;;
1533;SDS011;760;48.822;9.304;2022-11-15T12:43:51;2.03;;;1.33;;
1533;SDS011;760;48.822;9.304;2022-11-15T12:49:01;2.00;;;1.70;;
1533;SDS011;760;48.822;9.304;2022-11-15T12:57:35;2.07;;;1.97;;
1533;SDS011;760;48.822;9.304;2022-11-15T12:59:58;1.43;;;1.33;;
1533;SDS011;760;48.822;9.304;2022-11-15T13:17:38;1.80;;;1.70;;
1533;SDS011;760;48.822;9.304;2022-11-15T13:20:14;1.13;;;1.13;;
1533;SDS011;760;48.822;9.304;2022-11-15T13:30:48;2.13;;;1.93;;
1533;SDS011;760;48.822;9.304;2022-11-15T13:33:20;2.07;;;1.70;;
1533;SDS011;760;48.822;9.304;2022-11-15T13:35:58;2.57;;;2.20;;
1533;SDS011;760;48.822;9.304;2022-11-15T13:38:39;1.40;;;1.33;;
1533;SDS011;760;48.822;9.304;2022-11-15T13:41:26;4.10;;;1.60;;
1533;SDS011;760;48.822;9.304;2022-11-15T13:43:58;2.83;;;1.53;;
1533;SDS011;760;48.822;9.304;2022-11-15T13:46:25;1.40;;;1.30;;
1533;SDS011;760;48.822;9.304;2022-11-15T13:56:54;2.40;;;1.57;;
1533;SDS011;760;48.822;9.304;2022-11-15T13:59:33;1.50;;;1.40;;
1533;SDS011;760;48.822;9.304;2022-11-15T14:02:12;7.23;;;2.87;;
1533;SDS011;760;48.822;9.304;2022-11-15T14:05:02;3.67;;;2.93;;
1533;SDS011;760;48.822;9.304;2022-11-15T14:08:25;2.47;;;2.27;;
1533;SDS011;760;48.822;9.304;2022-11-15T14:10:40;2.00;;;1.70;;
1533;SDS011;760;48.822;9.304;2022-11-15T14:13:10;2.57;;;1.53;;
1533;SDS011;760;48.822;9.304;2022-11-15T14:15:52;1.20;;;1.10;;
1533;SDS011;760;48.822;9.304;2022-11-15T14:21:07;7.90;;;1.90;;
1533;SDS011;760;48.822;9.304;2022-11-15T14:23:33;1.17;;;1.00;;
1533;SDS011;760;48.822;9.304;2022-11-15T14:26:01;1.43;;;1.33;;
1533;SDS011;760;48.822;9.304;2022-11-15T14:30:53;1.80;;;1.60;;
1533;SDS011;760;48.822;9.304;2022-11-15T14:33:25;1.70;;;1.37;;
1533;SDS011;760;48.822;9.304;2022-11-15T14:36:18;1.50;;;1.17;;
1533;SDS011;760;48.822;9.304;2022-11-15T14:38:45;1.57;;;1.47;;
1533;SDS011;760;48.822;9.304;2022-11-15T14:41:18;2.50;;;1.70;;
1533;SDS011;760;48.822;9.304;2022-11-15T14:43:49;1.90;;;1.80;;
1533;SDS011;760;48.822;9.304;2022-11-15T14:46:15;1.67;;;1.57;;
1533;SDS011;760;48.822;9.304;2022-11-15T14:48:41;1.87;;;1.73;;
1533;SDS011;760;48.822;9.304;2022-11-15T14:51:14;4.27;;;1.77;;
1533;SDS011;760;48.822;9.304;2022-11-15T14:53:43;2.23;;;2.00;;
1533;SDS011;760;48.822;9.304;2022-11-15T14:56:10;2.20;;;1.80;;
1533;SDS011;760;48.822;9.304;2022-11-15T14:58:36;3.50;;;3.20;;
1533;SDS011;760;48.822;9.304;2022-11-15T15:01:03;2.80;;;2.00;;
1533;SDS011;760;48.822;9.304;2022-11-15T15:03:53;1.87;;;1.73;;
1533;SDS011;760;48.822;9.304;2022-11-15T15:06:21;2.40;;;2.10;;
1533;SDS011;760;48.822;9.304;2022-11-15T15:08:47;1.90;;;1.70;;
1533;SDS011;760;48.822;9.304;2022-11-15T15:11:28;3.43;;;2.77;;
1533;SDS011;760;48.822;9.304;2022-11-15T15:13:55;1.93;;;1.83;;
1533;SDS011;760;48.822;9.304;2022-11-15T15:16:24;2.30;;;2.20;;
1533;SDS011;760;48.822;9.304;2022-11-15T15:18:50;2.33;;;1.97;;
1533;SDS011;760;48.822;9.304;2022-11-15T15:21:22;2.10;;;1.90;;
1533;SDS011;760;48.822;9.304;2022-11-15T15:23:50;4.10;;;2.37;;
1533;SDS011;760;48.822;9.304;2022-11-15T15:26:18;2.67;;;2.17;;
1533;SDS011;760;48.822;9.304;2022-11-15T15:28:44;2.43;;;2.30;;
1533;SDS011;760;48.822;9.304;2022-11-15T15:31:10;2.80;;;2.50;;
1533;SDS011;760;48.822;9.304;2022-11-15T15:33:36;3.43;;;2.33;;
1533;SDS011;760;48.822;9.304;2022-11-15T15:36:02;3.40;;;2.03;;
1533;SDS011;760;48.822;9.304;2022-11-15T15:38:28;2.20;;;1.93;;
1533;SDS011;760;48.822;9.304;2022-11-15T15:40:54;2.80;;;1.93;;
1533;SDS011;760;48.822;9.304;2022-11-15T15:43:20;2.53;;;2.30;;
1533;SDS011;760;48.822;9.304;2022-11-15T15:45:46;4.67;;;2.70;;
1533;SDS011;760;48.822;9.304;2022-11-15T15:48:12;2.20;;;1.80;;
1533;SDS011;760;48.822;9.304;2022-11-15T15:50:39;2.40;;;2.20;;
1533;SDS011;760;48.822;9.304;2022-11-15T15:53:07;2.17;;;2.03;;
1533;SDS011;760;48.822;9.304;2022-11-15T15:55:35;2.17;;;2.07;;
1533;SDS011;760;48.822;9.304;2022-11-15T15:58:01;2.10;;;1.90;;
1533;SDS011;760;48.822;9.304;2022-11-15T16:00:27;3.00;;;1.97;;
1533;SDS011;760;48.822;9.304;2022-11-15T16:02:53;2.23;;;2.07;;
1533;SDS011;760;48.822;9.304;2022-11-15T16:05:19;1.93;;;1.83;;
1533;SDS011;760;48.822;9.304;2022-11-15T16:07:46;2.63;;;2.00;;
1533;SDS011;760;48.822;9.304;2022-11-15T16:12:49;3.13;;;2.83;;
1533;SDS011;760;48.822;9.304;2022-11-15T16:15:15;1.80;;;1.70;;
1533;SDS011;760;48.822;9.304;2022-11-15T16:17:45;3.03;;;2.73;;
1533;SDS011;760;48.822;9.304;2022-11-15T16:20:28;3.47;;;2.67;;
1533;SDS011;760;48.822;9.304;2022-11-15T16:22:59;2.87;;;2.40;;
1533;SDS011;760;48.822;9.304;2022-11-15T16:25:25;4.17;;;3.17;;
1533;SDS011;760;48.822;9.304;2022-11-15T16:27:51;4.17;;;3.30;;
1533;SDS011;760;48.822;9.304;2022-11-15T16:30:18;4.70;;;2.47;;
1533;SDS011;760;48.822;9.304;2022-11-15T16:32:45;5.50;;;3.17;;
1533;SDS011;760;48.822;9.304;2022-11-15T16:35:11;2.97;;;2.60;;
1533;SDS011;760;48.822;9.304;2022-11-15T16:37:38;3.13;;;2.60;;
1533;SDS011;760;48.822;9.304;2022-11-15T16:40:14;5.33;;;3.23;;
1533;SDS011;760;48.822;9.304;2022-11-15T16:42:49;3.30;;;2.23;;
1533;SDS011;760;48.822;9.304;2022-11-15T16:45:14;3.47;;;3.00;;
1533;SDS011;760;48.822;9.304;2022-11-15T16:47:40;3.33;;;3.03;;
1533;SDS011;760;48.822;9.304;2022-11-15T16:50:06;2.70;;;2.40;;
1533;SDS011;760;48.822;9.304;2022-11-15T16:52:55;2.67;;;2.30;;
1533;SDS011;760;48.822;9.304;2022-11-15T16:55:25;2.23;;;2.00;;
1533;SDS011;760;48.822;9.304;2022-11-15T16:57:52;6.07;;;2.83;;
1533;SDS011;760;48.822;9.304;2022-11-15T17:00:19;2.93;;;2.17;;
1533;SDS011;760;48.822;9.304;2022-11-15T17:02:46;2.40;;;2.27;;
1533;SDS011;760;48.822;9.304;2022-11-15T17:05:14;7.93;;;2.60;;
1533;SDS011;760;48.822;9.304;2022-11-15T17:07:41;2.03;;;1.93;;
1533;SDS011;760;48.822;9.304;2022-11-15T17:10:08;4.83;;;2.73;;
1533;SDS011;760;48.822;9.304;2022-11-15T17:12:36;8.47;;;3.77;;
1533;SDS011;760;48.822;9.304;2022-11-15T17:15:02;5.17;;;2.50;;
1533;SDS011;760;48.822;9.304;2022-11-15T17:17:29;5.30;;;2.37;;
1533;SDS011;760;48.822;9.304;2022-11-15T17:19:55;3.00;;;2.80;;
1533;SDS011;760;48.822;9.304;2022-11-15T17:22:21;4.50;;;3.60;;
1533;SDS011;760;48.822;9.304;2022-11-15T17:24:48;2.73;;;2.53;;
1533;SDS011;760;48.822;9.304;2022-11-15T17:27:13;2.90;;;2.53;;
1533;SDS011;760;48.822;9.304;2022-11-15T17:29:39;2.40;;;2.20;;
1533;SDS011;760;48.822;9.304;2022-11-15T17:32:06;3.10;;;2.70;;
1533;SDS011;760;48.822;9.304;2022-11-15T17:34:32;5.33;;;1.97;;
1533;SDS011;760;48.822;9.304;2022-11-15T17:36:57;7.03;;;2.93;;
1533;SDS011;760;48.822;9.304;2022-11-15T17:39:23;2.60;;;2.40;;
1533;SDS011;760;48.822;9.304;2022-11-15T17:41:49;3.70;;;2.20;;
1533;SDS011;760;48.822;9.304;2022-11-15T17:44:14;3.67;;;3.47;;
1533;SDS011;760;48.822;9.304;2022-11-15T17:46:40;3.90;;;2.63;;
1533;SDS011;760;48.822;9.304;2022-11-15T17:49:06;3.50;;;2.60;;
1533;SDS011;760;48.822;9.304;2022-11-15T17:51:32;2.43;;;2.20;;
1533;SDS011;760;48.822;9.304;2022-11-15T17:53:58;2.67;;;2.47;;
1533;SDS011;760;48.822;9.304;2022-11-15T17:56:25;3.57;;;3.27;;
1533;SDS011;760;48.822;9.304;2022-11-15T17:58:52;3.10;;;2.77;;
1533;SDS011;760;48.822;9.304;2022-11-15T18:01:21;3.50;;;2.53;;
1533;SDS011;760;48.822;9.304;2022-11-15T18:03:57;2.90;;;2.60;;
1533;SDS011;760;48.822;9.304;2022-11-15T18:06:25;4.07;;;3.20;;
1533;SDS011;760;48.822;9.304;2022-11-15T18:08:53;3.50;;;2.67;;
1533;SDS011;760;48.822;9.304;2022-11-15T18:11:25;2.80;;;2.50;;
1533;SDS011;760;48.822;9.304;2022-11-15T18:13:54;2.80;;;2.60;;
1533;SDS011;760;48.822;9.304;2022-11-15T18:16:22;5.33;;;2.67;;
1533;SDS011;760;48.822;9.304;2022-11-15T18:18:52;3.00;;;2.80;;
1533;SDS011;760;48.822;9.304;2022-11-15T18:21:19;3.90;;;2.97;;
1533;SDS011;760;48.822;9.304;2022-11-15T18:23:47;3.13;;;2.50;;
1533;SDS011;760;48.822;9.304;2022-11-15T18:26:14;3.87;;;3.17;;
1533;SDS011;760;48.822;9.304;2022-11-15T18:28:42;4.60;;;3.10;;
1533;SDS011;760;48.822;9.304;2022-11-15T18:31:17;3.57;;;2.90;;
1533;SDS011;760;48.822;9.304;2022-11-15T18:33:45;3.33;;;3.03;;
1533;SDS011;760;48.822;9.304;2022-11-15T18:36:12;3.60;;;3.33;;
1533;SDS011;760;48.822;9.304;2022-11-15T18:38:40;3.87;;;3.13;;
1533;SDS011;760;48.822;9.304;2022-11-15T18:41:13;6.10;;;3.30;;
1533;SDS011;760;48.822;9.304;2022-11-15T18:43:44;3.90;;;3.20;;
1533;SDS011;760;48.822;9.304;2022-11-15T18:46:14;3.73;;;3.40;;
1533;SDS011;760;48.822;9.304;2022-11-15T18:48:42;3.00;;;2.70;;
1533;SDS011;760;48.822;9.304;2022-11-15T18:51:09;5.17;;;3.13;;
1533;SDS011;760;48.822;9.304;2022-11-15T18:53:37;4.17;;;3.87;;
1533;SDS011;760;48.822;9.304;2022-11-15T18:56:04;4.30;;;3.87;;
1533;SDS011;760;48.822;9.304;2022-11-15T18:58:34;5.23;;;3.70;;
1533;SDS011;760;48.822;9.304;2022-11-15T19:01:01;3.57;;;3.27;;
1533;SDS011;760;48.822;9.304;2022-11-15T19:03:32;7.03;;;3.83;;
1533;SDS011;760;48.822;9.304;2022-11-15T19:06:06;4.40;;;3.40;;
1533;SDS011;760;48.822;9.304;2022-11-15T19:08:33;3.10;;;2.80;;
1533;SDS011;760;48.822;9.304;2022-11-15T19:13:29;4.23;;;3.73;;
1533;SDS011;760;48.822;9.304;2022-11-15T19:15:58;4.20;;;3.47;;
1533;SDS011;760;48.822;9.304;2022-11-15T19:18:25;2.93;;;2.63;;
1533;SDS011;760;48.822;9.304;2022-11-15T19:20:51;3.27;;;3.07;;
1533;SDS011;760;48.822;9.304;2022-11-15T19:23:19;3.27;;;2.97;;
1533;SDS011;760;48.822;9.304;2022-11-15T19:25:54;3.27;;;2.97;;
1533;SDS011;760;48.822;9.304;2022-11-15T19:28:22;3.80;;;2.97;;
1533;SDS011;760;48.822;9.304;2022-11-15T19:30:47;3.67;;;3.37;;
1533;SDS011;760;48.822;9.304;2022-11-15T19:33:13;3.27;;;2.97;;
1533;SDS011;760;48.822;9.304;2022-11-15T19:35:38;4.70;;;3.43;;
1533;SDS011;760;48.822;9.304;2022-11-15T19:38:04;8.90;;;4.70;;
1533;SDS011;760;48.822;9.304;2022-11-15T19:40:31;5.63;;;4.90;;
1533;SDS011;760;48.822;9.304;2022-11-15T19:42:57;6.97;;;5.03;;
1533;SDS011;760;48.822;9.304;2022-11-15T19:45:22;12.23;;;6.80;;
1533;SDS011;760;48.822;9.304;2022-11-15T19:47:48;6.10;;;5.50;;
1533;SDS011;760;48.822;9.304;2022-11-15T19:50:14;12.87;;;8.87;;
1533;SDS011;760;48.822;9.304;2022-11-15T19:52:40;10.40;;;7.50;;
1533;SDS011;760;48.822;9.304;2022-11-15T19:55:06;6.60;;;5.53;;
1533;SDS011;760;48.822;9.304;2022-11-15T19:57:33;7.45;;;5.57;;
1533;SDS011;760;48.822;9.304;2022-11-15T20:00:02;6.25;;;5.65;;
1533;SDS011;760;48.822;9.304;2022-11-15T20:02:30;9.23;;;5.82;;
1533;SDS011;760;48.822;9.304;2022-11-15T20:04:55;8.57;;;5.20;;
1533;SDS011;760;48.822;9.304;2022-11-15T20:07:21;8.83;;;6.57;;
1533;SDS011;760;48.822;9.304;2022-11-15T20:09:46;6.20;;;4.83;;
1533;SDS011;760;48.822;9.304;2022-11-15T20:12:12;9.23;;;5.57;;
1533;SDS011;760;48.822;9.304;2022-11-15T20:14:38;8.80;;;6.10;;
1533;SDS011;760;48.822;9.304;2022-11-15T20:17:03;6.10;;;4.93;;
1533;SDS011;760;48.822;9.304;2022-11-15T20:19:30;11.10;;;6.90;;
1533;SDS011;760;48.822;9.304;2022-11-15T20:21:56;5.63;;;4.72;;
1533;SDS011;760;48.822;9.304;2022-11-15T20:24:21;6.40;;;5.80;;
1533;SDS011;760;48.822;9.304;2022-11-15T20:26:47;6.10;;;4.70;;
1533;SDS011;760;48.822;9.304;2022-11-15T20:29:12;6.87;;;5.37;;
1533;SDS011;760;48.822;9.304;2022-11-15T20:31:38;6.17;;;5.53;;
1533;SDS011;760;48.822;9.304;2022-11-15T20:34:04;5.90;;;4.90;;
1533;SDS011;760;48.822;9.304;2022-11-15T20:36:29;5.30;;;4.50;;
1533;SDS011;760;48.822;9.304;2022-11-15T20:38:58;6.33;;;5.73;;
1533;SDS011;760;48.822;9.304;2022-11-15T20:41:24;6.30;;;5.63;;
1533;SDS011;760;48.822;9.304;2022-11-15T20:43:51;8.43;;;5.82;;
1533;SDS011;760;48.822;9.304;2022-11-15T20:46:16;8.20;;;5.60;;
1533;SDS011;760;48.822;9.304;2022-11-15T20:48:43;6.47;;;4.88;;
1533;SDS011;760;48.822;9.304;2022-11-15T20:51:13;6.43;;;5.77;;
1533;SDS011;760;48.822;9.304;2022-11-15T20:53:40;7.43;;;5.40;;
1533;SDS011;760;48.822;9.304;2022-11-15T20:56:08;8.95;;;5.55;;
1533;SDS011;760;48.822;9.304;2022-11-15T20:58:36;7.85;;;6.10;;
1533;SDS011;760;48.822;9.304;2022-11-15T21:01:02;8.50;;;6.57;;
1533;SDS011;760;48.822;9.304;2022-11-15T21:03:29;7.93;;;5.65;;
1533;SDS011;760;48.822;9.304;2022-11-15T21:05:55;5.73;;;5.20;;
1533;SDS011;760;48.822;9.304;2022-11-15T21:08:20;11.07;;;6.07;;
1533;SDS011;760;48.822;9.304;2022-11-15T21:10:48;6.83;;;5.20;;
1533;SDS011;760;48.822;9.304;2022-11-15T21:13:34;5.47;;;4.97;;
1533;SDS011;760;48.822;9.304;2022-11-15T21:16:00;6.07;;;4.97;;
1533;SDS011;760;48.822;9.304;2022-11-15T21:18:27;5.78;;;4.85;;
1533;SDS011;760;48.822;9.304;2022-11-15T21:20:53;6.03;;;5.38;;
1533;SDS011;760;48.822;9.304;2022-11-15T21:23:19;5.70;;;5.20;;
1533;SDS011;760;48.822;9.304;2022-11-15T21:25:51;8.90;;;4.80;;
1533;SDS011;760;48.822;9.304;2022-11-15T21:28:19;6.43;;;5.77;;
1533;SDS011;760;48.822;9.304;2022-11-15T21:30:54;7.00;;;5.80;;
1533;SDS011;760;48.822;9.304;2022-11-15T21:33:23;6.07;;;5.10;;
1533;SDS011;760;48.822;9.304;2022-11-15T21:35:51;7.30;;;5.50;;
1533;SDS011;760;48.822;9.304;2022-11-15T21:38:18;6.87;;;4.87;;
1533;SDS011;760;48.822;9.304;2022-11-15T21:40:44;6.37;;;5.43;;
1533;SDS011;760;48.822;9.304;2022-11-15T21:43:10;5.83;;;4.30;;
1533;SDS011;760;48.822;9.304;2022-11-15T21:45:35;8.00;;;5.30;;
1533;SDS011;760;48.822;9.304;2022-11-15T21:48:01;6.47;;;4.90;;
1533;SDS011;760;48.822;9.304;2022-11-15T21:50:26;7.47;;;5.30;;
1533;SDS011;760;48.822;9.304;2022-11-15T21:52:52;5.90;;;5.30;;
1533;SDS011;760;48.822;9.304;2022-11-15T21:55:17;5.30;;;4.87;;
1533;SDS011;760;48.822;9.304;2022-11-15T21:57:43;5.63;;;4.60;;
1533;SDS011;760;48.822;9.304;2022-11-15T22:00:09;10.53;;;6.40;;
1533;SDS011;760;48.822;9.304;2022-11-15T22:02:53;6.75;;;5.28;;
1533;SDS011;760;48.822;9.304;2022-11-15T22:05:19;7.97;;;6.50;;
1533;SDS011;760;48.822;9.304;2022-11-15T22:07:44;5.50;;;5.00;;
1533;SDS011;760;48.822;9.304;2022-11-15T22:10:10;10.40;;;5.03;;
1533;SDS011;760;48.822;9.304;2022-11-15T22:12:35;6.60;;;5.23;;
1533;SDS011;760;48.822;9.304;2022-11-15T22:15:01;6.50;;;5.77;;
1533;SDS011;760;48.822;9.304;2022-11-15T22:17:27;6.87;;;4.87;;
1533;SDS011;760;48.822;9.304;2022-11-15T22:20:13;7.85;;;5.90;;
1533;SDS011;760;48.822;9.304;2022-11-15T22:22:39;7.50;;;6.67;;
1533;SDS011;760;48.822;9.304;2022-11-15T22:25:04;7.30;;;5.17;;
1533;SDS011;760;48.822;9.304;2022-11-15T22:27:30;6.40;;;5.00;;
1533;SDS011;760;48.822;9.304;2022-11-15T22:29:56;7.43;;;5.07;;
1533;SDS011;760;48.822;9.304;2022-11-15T22:32:21;9.17;;;5.30;;
1533;SDS011;760;48.822;9.304;2022-11-15T22:34:47;5.30;;;4.73;;